sensor_id;sensor_type;location;lat;lon;timestamp;P1;durP1;ratioP1;P2;durP2;ratioP2
42092;SDS011;28974;50.316;18.960;2022-08-21T00:03:45;57.95;;;33.17;;
42092;SDS011;28974;50.316;18.960;2022-08-21T00:15:47;62.63;;;33.70;;
42092;SDS011;28974;50.316;18.960;2022-08-21T00:27:47;68.60;;;38.00;;
42092;SDS011;28974;50.316;18.960;2022-08-21T00:39:48;58.95;;;36.95;;
42092;SDS011;28974;50.316;18.960;2022-08-21T00:51:54;54.30;;;34.60;;
42092;SDS011;28974;50.316;18.960;2022-08-21T01:03:55;64.03;;;34.63;;
42092;SDS011;28974;50.316;18.960;2022-08-21T01:15:56;55.95;;;33.10;;
42092;SDS011;28974;50.316;18.960;2022-08-21T01:28:00;51.10;;;29.58;;
42092;SDS011;28974;50.316;18.960;2022-08-21T01:40:02;48.70;;;30.50;;
42092;SDS011;28974;50.316;18.960;2022-08-21T01:52:03;50.85;;;28.48;;
42092;SDS011;28974;50.316;18.960;2022-08-21T02:04:04;49.42;;;27.30;;
42092;SDS011;28974;50.316;18.960;2022-08-21T02:16:04;47.13;;;26.85;;
42092;SDS011;28974;50.316;18.960;2022-08-21T02:28:07;44.13;;;25.63;;
42092;SDS011;28974;50.316;18.960;2022-08-21T02:40:07;63.38;;;32.38;;
42092;SDS011;28974;50.316;18.960;2022-08-21T02:52:11;61.20;;;32.75;;
42092;SDS011;28974;50.316;18.960;2022-08-21T03:04:11;58.57;;;32.90;;
42092;SDS011;28974;50.316;18.960;2022-08-21T03:16:12;58.03;;;32.45;;
42092;SDS011;28974;50.316;18.960;2022-08-21T03:28:13;56.22;;;32.13;;
42092;SDS011;28974;50.316;18.960;2022-08-21T03:40:15;57.65;;;31.98;;
42092;SDS011;28974;50.316;18.960;2022-08-21T03:52:16;66.03;;;35.03;;
42092;SDS011;28974;50.316;18.960;2022-08-21T04:04:17;61.55;;;35.25;;
42092;SDS011;28974;50.316;18.960;2022-08-21T04:16:17;66.47;;;34.72;;
42092;SDS011;28974;50.316;18.960;2022-08-21T04:28:18;84.53;;;38.25;;
42092;SDS011;28974;50.316;18.960;2022-08-21T04:40:19;66.22;;;35.67;;
42092;SDS011;28974;50.316;18.960;2022-08-21T04:52:21;74.35;;;37.92;;
42092;SDS011;28974;50.316;18.960;2022-08-21T05:04:22;80.53;;;40.45;;
42092;SDS011;28974;50.316;18.960;2022-08-21T05:16:24;77.70;;;40.17;;
42092;SDS011;28974;50.316;18.960;2022-08-21T05:28:24;66.65;;;37.75;;
42092;SDS011;28974;50.316;18.960;2022-08-21T05:40:25;84.05;;;42.55;;
42092;SDS011;28974;50.316;18.960;2022-08-21T05:52:25;84.80;;;42.97;;
42092;SDS011;28974;50.316;18.960;2022-08-21T06:04:26;73.78;;;41.72;;
42092;SDS011;28974;50.316;18.960;2022-08-21T06:16:26;69.85;;;39.40;;
42092;SDS011;28974;50.316;18.960;2022-08-21T06:28:27;56.17;;;32.58;;
42092;SDS011;28974;50.316;18.960;2022-08-21T06:40:28;28.52;;;18.30;;
42092;SDS011;28974;50.316;18.960;2022-08-21T06:52:28;7.57;;;4.35;;
42092;SDS011;28974;50.316;18.960;2022-08-21T07:04:29;3.57;;;1.80;;
42092;SDS011;28974;50.316;18.960;2022-08-21T07:16:30;3.55;;;1.52;;
42092;SDS011;28974;50.316;18.960;2022-08-21T07:28:30;2.28;;;1.35;;
42092;SDS011;28974;50.316;18.960;2022-08-21T07:40:30;1.67;;;1.10;;
42092;SDS011;28974;50.316;18.960;2022-08-21T07:52:31;4.88;;;1.20;;
42092;SDS011;28974;50.316;18.960;2022-08-21T08:04:32;1.48;;;1.10;;
42092;SDS011;28974;50.316;18.960;2022-08-21T08:16:32;4.47;;;1.58;;
42092;SDS011;28974;50.316;18.960;2022-08-21T08:28:33;5.53;;;1.33;;
42092;SDS011;28974;50.316;18.960;2022-08-21T08:40:41;3.72;;;1.63;;
42092;SDS011;28974;50.316;18.960;2022-08-21T08:52:54;8.63;;;1.35;;
42092;SDS011;28974;50.316;18.960;2022-08-21T09:04:58;3.15;;;1.40;;
42092;SDS011;28974;50.316;18.960;2022-08-21T09:17:25;2.80;;;1.05;;
42092;SDS011;28974;50.316;18.960;2022-08-21T09:29:30;4.43;;;1.35;;
42092;SDS011;28974;50.316;18.960;2022-08-21T09:41:32;2.83;;;1.40;;
42092;SDS011;28974;50.316;18.960;2022-08-21T09:53:33;9.00;;;1.45;;
42092;SDS011;28974;50.316;18.960;2022-08-21T10:05:35;4.95;;;1.50;;
42092;SDS011;28974;50.316;18.960;2022-08-21T10:29:42;1.73;;;1.30;;
42092;SDS011;28974;50.316;18.960;2022-08-21T10:41:54;3.30;;;1.40;;
42092;SDS011;28974;50.316;18.960;2022-08-21T11:06:01;1.48;;;1.33;;
42092;SDS011;28974;50.316;18.960;2022-08-21T11:18:17;1.75;;;1.65;;
42092;SDS011;28974;50.316;18.960;2022-08-21T11:30:19;2.15;;;1.63;;
42092;SDS011;28974;50.316;18.960;2022-08-21T11:54:24;4.05;;;1.80;;
42092;SDS011;28974;50.316;18.960;2022-08-21T12:18:30;2.13;;;1.20;;
42092;SDS011;28974;50.316;18.960;2022-08-21T12:30:39;1.45;;;1.35;;
42092;SDS011;28974;50.316;18.960;2022-08-21T12:42:44;2.22;;;1.80;;
42092;SDS011;28974;50.316;18.960;2022-08-21T12:54:46;3.20;;;2.17;;
42092;SDS011;28974;50.316;18.960;2022-08-21T13:06:47;7.97;;;3.60;;
42092;SDS011;28974;50.316;18.960;2022-08-21T13:18:55;11.48;;;8.05;;
42092;SDS011;28974;50.316;18.960;2022-08-21T13:30:56;10.70;;;7.38;;
42092;SDS011;28974;50.316;18.960;2022-08-21T13:42:57;30.35;;;16.75;;
42092;SDS011;28974;50.316;18.960;2022-08-21T13:54:58;37.25;;;20.10;;
42092;SDS011;28974;50.316;18.960;2022-08-21T14:06:59;17.73;;;10.15;;
42092;SDS011;28974;50.316;18.960;2022-08-21T14:31:14;11.98;;;6.75;;
42092;SDS011;28974;50.316;18.960;2022-08-21T14:43:14;13.50;;;8.65;;
42092;SDS011;28974;50.316;18.960;2022-08-21T14:55:15;12.23;;;6.50;;
42092;SDS011;28974;50.316;18.960;2022-08-21T15:07:16;16.60;;;7.10;;
42092;SDS011;28974;50.316;18.960;2022-08-21T15:19:16;12.23;;;6.63;;
42092;SDS011;28974;50.316;18.960;2022-08-21T15:31:16;15.05;;;9.80;;
42092;SDS011;28974;50.316;18.960;2022-08-21T15:43:27;12.48;;;6.97;;
42092;SDS011;28974;50.316;18.960;2022-08-21T15:55:28;12.85;;;7.30;;
42092;SDS011;28974;50.316;18.960;2022-08-21T16:07:28;9.00;;;5.63;;
42092;SDS011;28974;50.316;18.960;2022-08-21T16:19:29;11.02;;;6.20;;
42092;SDS011;28974;50.316;18.960;2022-08-21T16:31:29;11.27;;;6.40;;
42092;SDS011;28974;50.316;18.960;2022-08-21T16:43:30;9.75;;;5.47;;
42092;SDS011;28974;50.316;18.960;2022-08-21T16:55:31;11.05;;;5.93;;
42092;SDS011;28974;50.316;18.960;2022-08-21T17:07:33;19.05;;;10.38;;
42092;SDS011;28974;50.316;18.960;2022-08-21T17:19:33;23.80;;;12.02;;
42092;SDS011;28974;50.316;18.960;2022-08-21T17:31:34;31.92;;;17.25;;
42092;SDS011;28974;50.316;18.960;2022-08-21T17:43:37;23.55;;;13.93;;
42092;SDS011;28974;50.316;18.960;2022-08-21T17:55:37;25.17;;;13.75;;
42092;SDS011;28974;50.316;18.960;2022-08-21T18:07:38;9.18;;;5.32;;
42092;SDS011;28974;50.316;18.960;2022-08-21T18:19:39;6.68;;;2.63;;
42092;SDS011;28974;50.316;18.960;2022-08-21T18:31:39;4.95;;;2.75;;
42092;SDS011;28974;50.316;18.960;2022-08-21T18:43:40;7.03;;;3.50;;
42092;SDS011;28974;50.316;18.960;2022-08-21T18:55:40;4.57;;;3.25;;
42092;SDS011;28974;50.316;18.960;2022-08-21T19:07:41;4.63;;;2.97;;
42092;SDS011;28974;50.316;18.960;2022-08-21T19:19:41;5.28;;;2.60;;
42092;SDS011;28974;50.316;18.960;2022-08-21T19:31:42;6.07;;;3.10;;
42092;SDS011;28974;50.316;18.960;2022-08-21T19:43:48;27.65;;;17.95;;
42092;SDS011;28974;50.316;18.960;2022-08-21T19:55:49;32.58;;;16.75;;
42092;SDS011;28974;50.316;18.960;2022-08-21T20:07:50;26.85;;;12.65;;
42092;SDS011;28974;50.316;18.960;2022-08-21T20:19:50;36.88;;;18.80;;
42092;SDS011;28974;50.316;18.960;2022-08-21T20:31:51;14.35;;;9.35;;
42092;SDS011;28974;50.316;18.960;2022-08-21T20:43:51;8.55;;;5.95;;
42092;SDS011;28974;50.316;18.960;2022-08-21T20:55:51;18.13;;;3.90;;
42092;SDS011;28974;50.316;18.960;2022-08-21T21:08:04;11.27;;;2.10;;
42092;SDS011;28974;50.316;18.960;2022-08-21T21:20:09;2.67;;;1.40;;
42092;SDS011;28974;50.316;18.960;2022-08-21T21:32:10;4.03;;;1.33;;
42092;SDS011;28974;50.316;18.960;2022-08-21T22:08:52;4.93;;;1.35;;
42092;SDS011;28974;50.316;18.960;2022-08-21T22:21:03;1.55;;;1.45;;
42092;SDS011;28974;50.316;18.960;2022-08-21T22:33:09;3.60;;;1.90;;
42092;SDS011;28974;50.316;18.960;2022-08-21T22:45:09;6.35;;;2.95;;
42092;SDS011;28974;50.316;18.960;2022-08-21T22:57:11;8.07;;;3.80;;
42092;SDS011;28974;50.316;18.960;2022-08-21T23:09:20;7.82;;;5.18;;
42092;SDS011;28974;50.316;18.960;2022-08-21T23:58:08;23.02;;;11.80;;
